Time;durP1;ratioP1;P1;durP2;ratioP2;P2;SDS_P1;SDS_P2;PMS_P1;PMS_P2;Temp;Humidity;BMP_temperature;BMP_pressure;BME280_temperature;BME280_humidity;BME280_pressure;Samples;Min_cycle;Max_cycle;Signal;HPM_P1;HPM_P2
2023/10/09 00:01:46;;;;;;;19.50;8.27;;;11.90;99.90;;;;;;5049153;28;20036;-63
2023/10/09 00:04:13;;;;;;;18.30;7.72;;;11.90;99.90;;;;;;5049373;28;20035;-62
2023/10/09 00:06:41;;;;;;;15.60;6.80;;;11.90;99.90;;;;;;5057641;28;20111;-62
2023/10/09 00:11:44;;;;;;;12.65;7.10;;;11.80;99.90;;;;;;5065599;28;20031;-63
2023/10/09 00:14:11;;;;;;;18.98;7.50;;;11.80;99.90;;;;;;5059032;28;20032;-62
2023/10/09 00:16:43;;;;;;;19.38;7.28;;;11.80;99.90;;;;;;5050995;28;20047;-63
2023/10/09 00:21:41;;;;;;;17.20;7.30;;;11.70;99.90;;;;;;5058350;28;20112;-63
2023/10/09 00:24:13;;;;;;;15.45;6.85;;;11.60;99.90;;;;;;5047752;28;20028;-63
2023/10/09 00:26:46;;;;;;;17.13;6.85;;;11.60;99.90;;;;;;5048714;28;20041;-63
2023/10/09 00:29:15;;;;;;;14.27;6.82;;;11.60;99.90;;;;;;5048940;28;20064;-63
2023/10/09 00:31:50;;;;;;;18.80;7.38;;;11.60;99.90;;;;;;5048815;28;20029;-63
2023/10/09 00:34:19;;;;;;;19.10;7.32;;;11.50;99.90;;;;;;5062425;28;20029;-62
2023/10/09 00:36:52;;;;;;;17.13;6.78;;;11.50;99.90;;;;;;5064601;28;20481;-63
2023/10/09 00:39:43;;;;;;;21.52;7.05;;;11.50;99.90;;;;;;5048836;28;20033;-63
2023/10/09 00:42:12;;;;;;;15.13;6.60;;;11.50;99.90;;;;;;5028036;28;20041;-62
2023/10/09 00:44:39;;;;;;;18.10;6.50;;;11.50;99.90;;;;;;5043457;28;20041;-62
2023/10/09 00:47:20;;;;;;;17.45;6.50;;;11.50;99.90;;;;;;5052695;28;20025;-63
2023/10/09 00:49:59;;;;;;;16.38;6.55;;;11.50;99.90;;;;;;5068407;28;20029;-63
2023/10/09 00:52:40;;;;;;;16.52;6.93;;;11.40;99.90;;;;;;5068241;28;20036;-63
2023/10/09 00:55:20;;;;;;;15.73;6.55;;;11.40;99.90;;;;;;5048589;28;20033;-63
2023/10/09 00:57:53;;;;;;;13.80;6.35;;;11.50;99.90;;;;;;5068302;28;20040;-63
2023/10/09 01:03:13;;;;;;;20.55;6.43;;;11.50;99.90;;;;;;5053287;28;20033;-66
2023/10/09 01:05:45;;;;;;;16.52;6.93;;;11.50;99.90;;;;;;5063947;28;20037;-65
2023/10/09 01:08:24;;;;;;;18.17;6.82;;;11.50;99.90;;;;;;5047442;28;20457;-63
2023/10/09 01:16:16;;;;;;;21.70;7.25;;;11.70;99.90;;;;;;5056582;28;20032;-63
2023/10/09 01:18:46;;;;;;;19.88;6.80;;;11.70;99.90;;;;;;5062804;28;20020;-63
2023/10/09 01:21:13;;;;;;;;;;;11.70;99.90;;;;;;5047774;28;20021;-63
2023/10/09 01:23:59;;;;;;;19.70;6.65;;;11.70;99.90;;;;;;5044760;28;19916;-63
2023/10/09 01:26:25;;;;;;;20.15;7.13;;;11.70;99.90;;;;;;5054155;28;20032;-63
2023/10/09 01:28:53;;;;;;;15.57;6.30;;;11.70;99.90;;;;;;5064275;28;20029;-63
2023/10/09 01:31:20;;;;;;;17.30;7.05;;;11.60;99.90;;;;;;5057176;28;20060;-63
2023/10/09 01:33:46;;;;;;;16.70;7.13;;;11.50;99.90;;;;;;5056384;28;20036;-63
2023/10/09 01:36:15;;;;;;;13.63;6.68;;;11.50;99.90;;;;;;5056121;28;20225;-63
2023/10/09 01:38:41;;;;;;;16.80;6.60;;;11.40;99.90;;;;;;5048471;28;20056;-62
2023/10/09 01:41:15;;;;;;;18.50;6.38;;;11.40;99.90;;;;;;5046999;28;20037;-62
2023/10/09 01:43:44;;;;;;;15.73;6.45;;;11.40;99.90;;;;;;5062581;28;20036;-62
2023/10/09 01:46:11;;;;;;;18.65;6.50;;;11.40;99.90;;;;;;5052484;28;20100;-63
2023/10/09 01:48:44;;;;;;;18.00;7.13;;;11.30;99.90;;;;;;5048747;28;20033;-63
2023/10/09 01:51:17;;;;;;;17.67;6.70;;;11.30;99.90;;;;;;5058468;28;20040;-63
2023/10/09 01:53:56;;;;;;;16.60;6.57;;;11.30;99.90;;;;;;5051286;28;20036;-63
2023/10/09 01:56:22;;;;;;;19.58;7.13;;;11.20;99.90;;;;;;5047961;28;20025;-63
2023/10/09 01:58:50;;;;;;;15.52;6.18;;;11.20;99.90;;;;;;5048414;28;20040;-63
2023/10/09 02:01:16;;;;;;;21.70;6.68;;;11.20;99.90;;;;;;5047263;28;20112;-63
2023/10/09 02:03:42;;;;;;;19.15;6.75;;;11.10;99.90;;;;;;5047501;28;20390;-65
2023/10/09 02:06:26;;;;;;;13.63;6.10;;;11.00;99.90;;;;;;5054061;28;20028;-65
2023/10/09 02:08:56;;;;;;;16.25;6.25;;;11.00;99.90;;;;;;5061076;28;20097;-66
2023/10/09 02:11:36;;;;;;;15.30;5.93;;;11.00;99.90;;;;;;5060301;28;20029;-65
2023/10/09 02:14:05;;;;;;;16.13;6.25;;;11.10;99.90;;;;;;5050586;28;20122;-66
2023/10/09 02:16:41;;;;;;;19.17;6.80;;;11.10;99.90;;;;;;5051515;28;20087;-65
2023/10/09 02:19:08;;;;;;;18.83;6.47;;;11.10;99.90;;;;;;5050378;28;20032;-65
2023/10/09 02:21:39;;;;;;;16.40;7.03;;;11.10;99.90;;;;;;5059718;28;20049;-63
2023/10/09 02:24:09;;;;;;;21.25;6.63;;;11.20;99.90;;;;;;5050467;28;20120;-64
2023/10/09 02:31:41;;;;;;;14.07;5.72;;;11.20;99.90;;;;;;5050878;28;20029;-66
2023/10/09 02:34:10;;;;;;;12.70;5.55;;;11.20;99.90;;;;;;5050895;28;20621;-65
2023/10/09 02:36:42;;;;;;;13.73;5.38;;;11.10;99.90;;;;;;5049065;28;20098;-66
2023/10/09 02:39:22;;;;;;;13.35;5.65;;;11.00;99.90;;;;;;5051437;28;20117;-65
2023/10/09 02:41:50;;;;;;;;;;;11.00;99.90;;;;;;5051337;28;20439;-66
2023/10/09 02:44:17;;;;;;;16.77;5.85;;;10.90;99.90;;;;;;5056309;28;20284;-63
2023/10/09 02:46:44;;;;;;;23.58;5.75;;;10.90;99.90;;;;;;5050509;28;20056;-62
2023/10/09 02:49:15;;;;;;;14.30;6.10;;;10.90;99.90;;;;;;5067829;28;20039;-62
2023/10/09 02:51:47;;;;;;;13.88;6.03;;;10.80;99.90;;;;;;5070163;28;20489;-63
2023/10/09 02:54:26;;;;;;;14.48;6.10;;;10.80;99.90;;;;;;5069255;28;20640;-62
2023/10/09 02:56:58;;;;;;;11.88;5.65;;;10.90;99.90;;;;;;5067486;28;20839;-62
2023/10/09 02:59:24;;;;;;;16.08;6.10;;;10.90;99.90;;;;;;5055304;28;20646;-63
2023/10/09 03:01:52;;;;;;;14.05;6.10;;;11.00;99.90;;;;;;5055166;28;20492;-63
2023/10/09 03:04:19;;;;;;;26.63;6.13;;;11.00;99.90;;;;;;5052939;28;20124;-63
2023/10/09 03:06:51;;;;;;;21.42;5.57;;;11.30;99.90;;;;;;5060708;28;20426;-63
2023/10/09 03:09:26;;;;;;;19.52;5.85;;;11.50;99.90;;;;;;5048302;28;20107;-63
2023/10/09 03:12:02;;;;;;;24.25;6.47;;;11.60;99.90;;;;;;5056132;28;20429;-63
2023/10/09 03:14:30;;;;;;;25.73;5.53;;;11.70;99.90;;;;;;5055392;28;20040;-63
2023/10/09 03:16:56;;;;;;;13.90;5.60;;;11.60;99.90;;;;;;5053743;28;20677;-63
2023/10/09 03:19:25;;;;;;;15.50;4.75;;;11.60;99.90;;;;;;5066085;28;20090;-63
2023/10/09 03:21:50;;;;;;;14.77;5.65;;;11.50;99.90;;;;;;5053891;28;20037;-63
2023/10/09 03:24:17;;;;;;;14.40;5.60;;;11.40;99.90;;;;;;5049380;28;20226;-63
2023/10/09 03:26:46;;;;;;;18.92;5.80;;;11.30;99.90;;;;;;5049624;28;20104;-63
2023/10/09 03:29:12;;;;;;;16.48;5.40;;;11.30;99.90;;;;;;5052770;28;20025;-63
2023/10/09 03:31:38;;;;;;;11.82;5.05;;;11.30;99.90;;;;;;5049426;28;20456;-63
2023/10/09 03:34:04;;;;;;;18.00;5.88;;;11.30;99.90;;;;;;5050637;28;20044;-63
2023/10/09 03:36:38;;;;;;;29.52;5.60;;;11.20;99.90;;;;;;5063825;28;20508;-63
2023/10/09 03:42:05;;;;;;;17.73;5.22;;;11.80;99.90;;;;;;5028307;28;20033;-63
2023/10/09 03:44:35;;;;;;;23.00;6.03;;;12.10;99.90;;;;;;5061691;28;20053;-63
2023/10/09 03:47:05;;;;;;;23.50;5.65;;;12.10;99.90;;;;;;5064339;28;20469;-63
2023/10/09 03:49:31;;;;;;;23.08;5.05;;;12.20;99.90;;;;;;5050310;28;20036;-63
2023/10/09 03:51:59;;;;;;;32.95;6.28;;;12.30;99.90;;;;;;5063247;28;20038;-64
2023/10/09 03:54:25;;;;;;;32.63;6.22;;;12.50;99.90;;;;;;5069314;28;20094;-63
2023/10/09 03:56:50;;;;;;;31.15;6.30;;;12.80;99.90;;;;;;5069248;28;20047;-63
2023/10/09 03:59:19;;;;;;;29.70;5.15;;;12.90;99.90;;;;;;5064203;28;20903;-63
2023/10/09 04:01:46;;;;;;;24.13;5.93;;;13.10;99.90;;;;;;5066408;28;20033;-63
2023/10/09 04:04:14;;;;;;;30.45;4.80;;;13.00;99.90;;;;;;5060935;28;20052;-65
2023/10/09 04:06:40;;;;;;;31.75;6.15;;;13.00;99.90;;;;;;5068970;28;20062;-63
2023/10/09 04:14:54;;;;;;;29.27;5.20;;;13.50;99.90;;;;;;5020134;28;20041;-64
2023/10/09 04:25:25;;;;;;;23.05;5.43;;;12.80;99.90;;;;;;5055533;28;20500;-64
2023/10/09 04:27:53;;;;;;;38.83;6.35;;;12.60;99.90;;;;;;5057432;28;20032;-63
2023/10/09 04:30:19;;;;;;;31.85;6.00;;;12.70;99.90;;;;;;5067937;28;20024;-63
2023/10/09 04:32:44;;;;;;;30.33;6.78;;;12.70;99.90;;;;;;5059017;28;20033;-64
2023/10/09 04:35:23;;;;;;;34.80;7.07;;;12.80;99.90;;;;;;5048443;28;20024;-63
2023/10/09 04:38:04;;;;;;;32.72;5.90;;;13.00;99.90;;;;;;5050189;28;20044;-63
2023/10/09 04:43:23;;;;;;;26.90;5.18;;;13.00;99.90;;;;;;5053499;28;20039;-63
2023/10/09 04:46:06;;;;;;;23.85;6.05;;;12.80;99.90;;;;;;5055302;28;20083;-63
2023/10/09 04:48:38;;;;;;;20.75;5.60;;;12.70;99.90;;;;;;5048331;28;20082;-64
2023/10/09 04:51:34;;;;;;;28.58;6.30;;;12.60;99.90;;;;;;5059636;28;20465;-64
2023/10/09 04:54:12;;;;;;;25.33;6.50;;;12.60;99.90;;;;;;5063090;28;20036;-64
2023/10/09 04:56:51;;;;;;;25.30;6.70;;;12.50;99.90;;;;;;5059870;28;20074;-64
2023/10/09 04:59:24;;;;;;;27.13;6.90;;;12.40;99.90;;;;;;5049475;28;20051;-63
2023/10/09 05:01:57;;;;;;;31.38;6.75;;;12.40;99.90;;;;;;5044331;28;20033;-63
2023/10/09 05:04:40;;;;;;;23.42;6.25;;;12.30;99.90;;;;;;5054976;28;20047;-63
2023/10/09 05:07:54;;;;;;;31.25;5.97;;;12.30;99.90;;;;;;5043421;28;20060;-64
2023/10/09 05:09:55;;;;;;;30.00;6.68;;;12.30;99.90;;;;;;5041442;28;20044;-63
2023/10/09 05:12:26;;;;;;;23.95;5.78;;;12.40;99.90;;;;;;5031944;28;20652;-63
2023/10/09 05:15:13;;;;;;;27.98;5.82;;;12.50;99.90;;;;;;5035051;28;20036;-63
2023/10/09 05:17:39;;;;;;;26.45;5.85;;;12.60;99.90;;;;;;5048383;28;20044;-63
2023/10/09 05:23:07;;;;;;;30.35;5.35;;;13.20;99.90;;;;;;5046397;28;20109;-63
2023/10/09 05:28:32;;;;;;;24.77;5.03;;;13.80;99.90;;;;;;5039828;28;20032;-63
2023/10/09 05:31:08;;;;;;;25.10;5.07;;;13.90;99.90;;;;;;5047071;28;20111;-63
2023/10/09 05:33:37;;;;;;;31.70;5.45;;;14.00;99.90;;;;;;5046857;28;20025;-64
2023/10/09 05:39:58;;;;;;;34.33;5.38;;;14.20;99.90;;;;;;5024142;28;20061;-63
2023/10/09 05:49:54;;;;;;;25.10;5.85;;;14.70;99.90;;;;;;5050827;28;20033;-62
2023/10/09 06:14:12;;;;;;;32.97;4.90;;;15.40;99.90;;;;;;5036600;28;20138;-64
2023/10/09 06:24:42;;;;;;;28.98;4.78;;;15.40;99.90;;;;;;5046844;28;20114;-63
2023/10/09 06:27:14;;;;;;;33.47;5.50;;;15.40;99.90;;;;;;5050323;28;20400;-64
2023/10/09 06:34:51;;;;;;;25.38;5.20;;;15.50;99.90;;;;;;5046008;28;20033;-64
2023/10/09 06:45:32;;;;;;;28.52;5.25;;;15.50;99.90;;;;;;5040913;28;20207;-65
2023/10/09 06:48:40;;;;;;;23.75;4.88;;;15.50;99.90;;;;;;5047036;28;20116;-61
2023/10/09 06:51:03;;;;;;;27.25;5.13;;;15.60;99.90;;;;;;5044656;28;20033;-60
2023/10/09 06:58:55;;;;;;;19.50;4.80;;;15.90;99.90;;;;;;5048854;28;20504;-61
2023/10/09 07:16:59;;;;;;;31.30;4.75;;;16.00;99.90;;;;;;5031798;28;20052;-66
2023/10/09 07:19:50;;;;;;;28.65;4.90;;;16.00;99.90;;;;;;5037638;28;20108;-66
2023/10/09 07:24:53;;;;;;;29.85;5.43;;;16.20;99.90;;;;;;5049647;28;20045;-65
2023/10/09 07:33:16;;;;;;;38.72;5.00;;;16.10;99.90;;;;;;5047330;28;20086;-66
2023/10/09 07:38:19;;;;;;;19.75;5.15;;;16.20;99.90;;;;;;5052347;28;20068;-66
2023/10/09 07:40:56;;;;;;;20.65;4.13;;;16.20;99.90;;;;;;5060351;28;20469;-64
2023/10/09 07:43:35;;;;;;;27.40;4.55;;;16.30;99.90;;;;;;5048222;28;20029;-65
2023/10/09 07:48:48;;;;;;;27.70;4.22;;;16.40;99.90;;;;;;5050633;28;20196;-64
2023/10/09 07:51:14;;;;;;;19.80;4.53;;;16.50;99.90;;;;;;5045431;28;20040;-65
2023/10/09 07:53:46;;;;;;;25.40;4.80;;;16.60;99.90;;;;;;5049128;28;20527;-65
2023/10/09 07:56:20;;;;;;;28.73;5.05;;;16.60;99.90;;;;;;5049481;28;20041;-65
2023/10/09 07:58:49;;;;;;;21.13;4.80;;;16.70;99.90;;;;;;5049712;28;20048;-65
2023/10/09 08:01:16;;;;;;;28.30;5.28;;;16.70;99.90;;;;;;5061767;28;20036;-65
2023/10/09 08:03:47;;;;;;;25.98;4.85;;;16.80;99.90;;;;;;5068852;28;20580;-65
2023/10/09 08:11:59;;;;;;;;;;;16.80;99.90;;;;;;5058429;28;20078;-65
2023/10/09 08:17:11;;;;;;;31.60;5.82;;;16.90;99.90;;;;;;5049446;28;20100;-65
2023/10/09 08:19:53;;;;;;;37.75;4.97;;;17.00;99.90;;;;;;5048524;28;20102;-65
2023/10/09 08:24:58;;;;;;;24.60;4.97;;;17.10;99.90;;;;;;5069244;28;20040;-65
2023/10/09 08:27:46;;;;;;;22.30;4.45;;;17.10;99.90;;;;;;5068308;28;20052;-65
2023/10/09 08:33:00;;;;;;;28.25;4.78;;;17.20;99.90;;;;;;5052945;28;20366;-65
2023/10/09 08:35:35;;;;;;;33.42;5.68;;;17.20;99.90;;;;;;5047663;28;20040;-65
2023/10/09 08:38:08;;;;;;;26.40;5.05;;;17.30;99.90;;;;;;5063439;28;20060;-65
2023/10/09 08:40:38;;;;;;;23.65;4.53;;;17.40;99.90;;;;;;5048395;28;20235;-65
2023/10/09 08:43:16;;;;;;;29.33;5.35;;;17.50;99.90;;;;;;5048829;28;20095;-65
2023/10/09 08:45:45;;;;;;;27.23;4.60;;;17.60;99.90;;;;;;5054107;28;20029;-65
2023/10/09 08:48:18;;;;;;;25.50;5.20;;;17.60;99.90;;;;;;5069034;28;20115;-65
2023/10/09 08:50:48;;;;;;;38.15;5.15;;;17.60;99.90;;;;;;5068429;28;20675;-65
2023/10/09 08:53:14;;;;;;;21.55;4.90;;;17.70;99.90;;;;;;5068641;28;20115;-65
2023/10/09 08:55:41;;;;;;;25.65;4.68;;;17.70;99.90;;;;;;5065171;28;20064;-65
2023/10/09 08:58:17;;;;;;;17.98;4.45;;;17.70;99.90;;;;;;5048961;28;20052;-65
2023/10/09 09:00:45;;;;;;;21.17;4.63;;;17.70;99.90;;;;;;5048525;28;20064;-65
2023/10/09 09:03:12;;;;;;;27.55;5.22;;;17.70;99.90;;;;;;5048529;28;20032;-64
2023/10/09 09:05:37;;;;;;;31.38;5.00;;;17.70;99.90;;;;;;5047700;28;20094;-65
2023/10/09 09:08:03;;;;;;;23.95;4.97;;;17.80;99.90;;;;;;5049068;28;20029;-65
2023/10/09 09:10:35;;;;;;;23.38;4.97;;;17.90;99.90;;;;;;5047737;28;20036;-64
2023/10/09 09:13:03;;;;;;;19.50;4.25;;;17.90;99.90;;;;;;5048508;28;20048;-65
2023/10/09 09:15:32;;;;;;;28.70;4.72;;;18.00;99.90;;;;;;5046935;28;20381;-65
2023/10/09 09:18:06;;;;;;;30.55;5.80;;;18.10;99.90;;;;;;5048422;28;20358;-64
2023/10/09 09:20:36;;;;;;;29.90;5.35;;;18.10;99.90;;;;;;5048111;28;20511;-64
2023/10/09 09:23:05;;;;;;;24.73;5.38;;;18.20;99.90;;;;;;5048343;28;20032;-65
2023/10/09 09:25:57;;;;;;;26.80;5.03;;;18.30;99.90;;;;;;5047177;28;20405;-65
2023/10/09 09:28:23;;;;;;;24.38;4.50;;;18.50;99.90;;;;;;5053333;28;20170;-66
2023/10/09 09:30:51;;;;;;;22.40;4.32;;;18.70;99.90;;;;;;5068316;28;20111;-65
2023/10/09 09:33:39;;;;;;;24.35;5.13;;;18.90;99.90;;;;;;5053145;28;20033;-66
2023/10/09 09:36:06;;;;;;;20.63;4.70;;;19.00;99.90;;;;;;5043703;28;20359;-65
2023/10/09 09:38:42;;;;;;;24.77;4.90;;;18.90;99.90;;;;;;5047491;28;20166;-65
2023/10/09 09:41:08;;;;;;;30.60;5.47;;;18.80;99.90;;;;;;5048151;28;20028;-65
2023/10/09 09:43:36;;;;;;;29.77;5.10;;;18.80;99.90;;;;;;5047368;28;20044;-65
2023/10/09 09:46:07;;;;;;;26.10;5.15;;;18.90;99.90;;;;;;5048131;28;20037;-65
2023/10/09 09:48:39;;;;;;;20.58;4.47;;;18.90;99.90;;;;;;5067003;28;20024;-65
2023/10/09 09:51:08;;;;;;;29.00;5.18;;;19.00;99.90;;;;;;5068095;28;20033;-65
2023/10/09 09:53:34;;;;;;;27.38;4.70;;;19.00;99.90;;;;;;5067338;28;20123;-65
2023/10/09 09:56:03;;;;;;;30.27;5.07;;;19.00;99.90;;;;;;5067996;28;20511;-64
2023/10/09 09:58:42;;;;;;;40.95;5.18;;;19.00;99.90;;;;;;5048383;28;20133;-65
2023/10/09 10:01:16;;;;;;;20.67;4.38;;;19.10;99.90;;;;;;5048091;28;20159;-65
2023/10/09 10:03:50;;;;;;;26.65;5.15;;;19.20;99.90;;;;;;5047067;28;20056;-64
2023/10/09 10:06:19;;;;;;;29.83;4.50;;;19.40;99.90;;;;;;5047884;28;20033;-65
2023/10/09 10:08:50;;;;;;;23.30;5.07;;;19.80;99.90;;;;;;5048482;28;20040;-65
2023/10/09 10:11:46;;;;;;;26.73;4.80;;;20.30;99.90;;;;;;5062716;28;20035;-65
2023/10/09 10:14:31;;;;;;;28.92;4.88;;;20.60;99.90;;;;;;5050975;28;20563;-65
2023/10/09 10:17:20;;;;;;;30.17;4.63;;;20.90;99.90;;;;;;5059402;28;20041;-65
2023/10/09 10:20:00;;;;;;;30.58;5.00;;;21.20;99.90;;;;;;5038366;28;20028;-65
2023/10/09 10:22:27;;;;;;;29.65;6.22;;;21.50;99.90;;;;;;5055566;28;20036;-65
2023/10/09 10:24:54;;;;;;;31.63;4.57;;;21.80;99.90;;;;;;5062189;28;20045;-65
2023/10/09 10:27:44;;;;;;;33.47;4.43;;;22.10;99.90;;;;;;5069554;28;20031;-65
2023/10/09 10:30:13;;;;;;;33.92;4.68;;;22.00;99.80;;;;;;5031366;28;20030;-65
2023/10/09 10:33:15;;;;;;;25.77;5.00;;;21.60;99.30;;;;;;5056400;28;20803;-65
2023/10/09 10:35:45;;;;;;;24.45;5.25;;;21.50;99.90;;;;;;5063399;28;20028;-65
2023/10/09 10:38:36;;;;;;;39.45;4.57;;;21.40;99.90;;;;;;5053378;28;20060;-65
2023/10/09 10:41:11;;;;;;;;;;;21.10;99.20;;;;;;5064015;28;20040;-64
2023/10/09 10:46:30;;;;;;;36.80;4.75;;;20.70;99.90;;;;;;5067784;28;20473;-64
2023/10/09 10:48:59;;;;;;;30.48;4.15;;;20.60;99.90;;;;;;5039306;28;20111;-64
2023/10/09 10:51:37;;;;;;;32.00;4.88;;;20.50;99.90;;;;;;5068504;28;20410;-66
2023/10/09 10:56:48;;;;;;;35.08;4.68;;;20.40;99.90;;;;;;5059195;28;20036;-64
2023/10/09 10:59:22;;;;;;;36.78;4.75;;;20.40;99.90;;;;;;5050636;28;20044;-65
2023/10/09 11:02:13;;;;;;;24.08;5.07;;;20.40;99.90;;;;;;5064333;28;20032;-65
2023/10/09 11:04:41;;;;;;;28.65;5.05;;;20.30;99.90;;;;;;5069602;28;20044;-64
2023/10/09 11:12:45;;;;;;;34.58;4.90;;;20.20;99.90;;;;;;5069772;28;20028;-65
2023/10/09 11:18:05;;;;;;;27.77;4.65;;;20.10;99.90;;;;;;5050057;28;20036;-65
2023/10/09 11:20:33;;;;;;;32.15;4.45;;;20.00;99.90;;;;;;5062113;28;20366;-65
2023/10/09 11:25:50;;;;;;;24.70;4.72;;;20.10;99.90;;;;;;5068172;28;20776;-65
2023/10/09 11:31:12;;;;;;;30.92;4.45;;;20.10;99.90;;;;;;5038007;28;20048;-65
2023/10/09 11:33:52;;;;;;;28.35;4.35;;;20.00;99.90;;;;;;5029141;28;20574;-65
2023/10/09 11:36:31;;;;;;;34.42;4.57;;;20.00;99.90;;;;;;5030309;28;20238;-65
2023/10/09 11:39:17;;;;;;;27.92;5.50;;;20.00;99.90;;;;;;5029758;28;20051;-65
2023/10/09 11:41:44;;;;;;;26.33;4.57;;;20.00;99.90;;;;;;5027870;28;20036;-65
2023/10/09 11:44:33;;;;;;;44.65;4.85;;;20.00;99.90;;;;;;5029957;28;20021;-64
2023/10/09 11:47:24;;;;;;;35.55;5.80;;;20.00;99.90;;;;;;5030019;28;20025;-65
2023/10/09 11:49:56;;;;;;;33.65;4.13;;;20.00;99.90;;;;;;5036356;28;20037;-65
2023/10/09 11:54:58;;;;;;;35.50;5.50;;;20.00;99.90;;;;;;5049495;28;20674;-65
2023/10/09 11:57:30;;;;;;;35.92;4.43;;;19.90;99.90;;;;;;5069711;28;20459;-64
2023/10/09 12:00:25;;;;;;;32.47;4.75;;;19.70;99.90;;;;;;5069647;28;20064;-64
2023/10/09 12:02:52;;;;;;;28.92;4.97;;;19.50;99.90;;;;;;5067194;28;20062;-65
2023/10/09 12:05:18;;;;;;;39.00;4.65;;;19.30;99.90;;;;;;5069377;28;20040;-65
2023/10/09 12:07:45;;;;;;;37.42;5.68;;;19.20;99.90;;;;;;5068816;28;20052;-65
2023/10/09 12:10:13;;;;;;;32.00;5.68;;;19.10;99.90;;;;;;5060329;28;20040;-65
2023/10/09 12:12:39;;;;;;;29.83;4.80;;;19.10;99.90;;;;;;5048752;28;20116;-65
2023/10/09 12:15:06;;;;;;;32.25;4.72;;;19.10;99.90;;;;;;5049312;28;20057;-64
2023/10/09 12:17:32;;;;;;;28.73;5.22;;;19.00;99.90;;;;;;5048854;28;20108;-65
2023/10/09 12:19:58;;;;;;;28.52;4.30;;;19.10;99.90;;;;;;5055333;28;20031;-65
2023/10/09 12:22:26;;;;;;;24.65;4.68;;;19.20;99.90;;;;;;5067498;28;20365;-65
2023/10/09 12:24:54;;;;;;;33.75;5.93;;;19.30;99.90;;;;;;5068680;28;20433;-65
2023/10/09 12:27:20;;;;;;;33.60;4.75;;;19.40;99.90;;;;;;5068950;28;20039;-65
2023/10/09 12:29:46;;;;;;;31.10;5.80;;;19.50;99.90;;;;;;5064273;28;20052;-65
2023/10/09 12:32:12;;;;;;;34.90;5.35;;;19.60;99.90;;;;;;5048996;28;20029;-65
2023/10/09 12:34:39;;;;;;;30.55;4.95;;;19.70;99.90;;;;;;5052449;28;20051;-65
2023/10/09 12:37:06;;;;;;;29.58;4.97;;;19.80;99.90;;;;;;5058561;28;20104;-65
2023/10/09 12:39:39;;;;;;;30.85;4.60;;;19.90;99.90;;;;;;5048181;28;20469;-65
2023/10/09 12:42:08;;;;;;;30.92;5.85;;;20.00;99.90;;;;;;5047444;28;20132;-65
2023/10/09 12:44:40;;;;;;;37.42;4.60;;;20.30;99.90;;;;;;5060974;28;20074;-65
2023/10/09 12:47:07;;;;;;;36.10;5.40;;;20.50;99.90;;;;;;5048926;28;20063;-65
2023/10/09 12:49:33;;;;;;;27.23;4.80;;;20.60;99.90;;;;;;5047554;28;20049;-65
2023/10/09 12:51:59;;;;;;;34.67;5.47;;;20.60;99.90;;;;;;5048326;28;20063;-65
2023/10/09 12:54:28;;;;;;;32.28;6.43;;;20.60;99.90;;;;;;5060803;28;20170;-65
2023/10/09 12:56:57;;;;;;;33.22;5.35;;;20.70;99.90;;;;;;5067836;28;20082;-65
2023/10/09 12:59:24;;;;;;;29.35;5.38;;;20.70;99.90;;;;;;5068689;28;20025;-65
2023/10/09 13:01:52;;;;;;;25.77;4.85;;;20.60;99.90;;;;;;5065979;28;20064;-65
2023/10/09 13:04:22;;;;;;;35.60;5.15;;;20.60;99.90;;;;;;5068399;28;20037;-64
2023/10/09 13:06:51;;;;;;;34.00;5.05;;;20.50;99.90;;;;;;5067734;28;20029;-65
2023/10/09 13:09:32;;;;;;;36.08;4.97;;;20.60;99.90;;;;;;5068472;28;20796;-64
2023/10/09 13:12:00;;;;;;;34.95;5.35;;;20.80;99.90;;;;;;5056211;28;20123;-65
2023/10/09 13:14:26;;;;;;;26.10;4.53;;;20.80;99.90;;;;;;5048335;28;20033;-64
2023/10/09 13:16:52;;;;;;;33.83;5.00;;;20.90;99.90;;;;;;5047404;28;20020;-64
2023/10/09 13:19:18;;;;;;;29.45;4.60;;;20.90;99.90;;;;;;5048394;28;20102;-64
2023/10/09 13:21:44;;;;;;;27.88;4.88;;;20.90;99.90;;;;;;5048648;28;20102;-64
2023/10/09 13:24:15;;;;;;;24.38;4.80;;;20.90;99.90;;;;;;5048134;28;20025;-65
2023/10/09 13:26:51;;;;;;;27.90;5.10;;;20.90;99.90;;;;;;5048561;28;20033;-65
2023/10/09 13:29:22;;;;;;;24.40;5.10;;;20.90;99.90;;;;;;5057574;28;20036;-64
2023/10/09 13:31:48;;;;;;;37.28;6.03;;;20.90;99.90;;;;;;5062414;28;20055;-64
2023/10/09 13:34:15;;;;;;;27.80;5.22;;;20.90;99.90;;;;;;5048710;28;20477;-65
2023/10/09 13:36:55;;;;;;;30.67;4.80;;;20.90;99.90;;;;;;5057484;28;20041;-65
2023/10/09 13:39:24;;;;;;;26.48;4.95;;;21.00;99.90;;;;;;5060251;28;20047;-64
2023/10/09 13:41:59;;;;;;;25.15;4.57;;;21.00;99.90;;;;;;5047566;28;20545;-65
2023/10/09 13:44:42;;;;;;;22.40;4.93;;;21.10;99.90;;;;;;5048027;28;20033;-65
2023/10/09 13:47:18;;;;;;;34.28;4.70;;;21.20;99.90;;;;;;5052843;28;20469;-64
2023/10/09 13:49:52;;;;;;;34.97;4.78;;;21.30;99.90;;;;;;5067215;28;20052;-65
2023/10/09 13:52:21;;;;;;;24.95;4.50;;;21.40;99.90;;;;;;5068091;28;20137;-65
2023/10/09 13:54:50;;;;;;;32.20;4.45;;;21.50;99.90;;;;;;5067149;28;20045;-64
2023/10/09 13:57:16;;;;;;;28.10;5.28;;;21.80;99.90;;;;;;5065311;28;20119;-64
2023/10/09 13:59:49;;;;;;;30.48;4.97;;;22.20;99.90;;;;;;5049659;28;20152;-65
2023/10/09 14:02:20;;;;;;;29.88;4.68;;;22.50;99.90;;;;;;5051186;28;20036;-64
2023/10/09 14:04:47;;;;;;;28.05;5.25;;;22.60;98.40;;;;;;5051088;28;20040;-65
2023/10/09 14:07:16;;;;;;;39.95;5.20;;;22.70;96.70;;;;;;5051870;28;20064;-65
2023/10/09 14:09:54;;;;;;;26.02;5.03;;;22.70;96.30;;;;;;5051107;28;20044;-64
2023/10/09 14:12:23;;;;;;;34.90;6.38;;;22.70;97.60;;;;;;5056628;28;20430;-64
2023/10/09 14:14:49;;;;;;;31.35;5.75;;;22.70;97.40;;;;;;5067338;28;20029;-64
2023/10/09 14:17:23;;;;;;;33.42;5.38;;;22.60;97.80;;;;;;5051703;28;20044;-64
2023/10/09 14:19:51;;;;;;;32.63;5.28;;;22.40;97.70;;;;;;5050769;28;20061;-64
2023/10/09 14:22:26;;;;;;;31.02;5.68;;;22.30;98.10;;;;;;5051560;28;20111;-64
2023/10/09 14:24:55;;;;;;;37.17;5.70;;;22.20;97.30;;;;;;5058951;28;20511;-64
2023/10/09 14:27:25;;;;;;;35.20;5.40;;;22.20;97.80;;;;;;5065001;28;20105;-64
2023/10/09 14:29:55;;;;;;;32.78;5.28;;;22.40;96.50;;;;;;5051274;28;20071;-65
2023/10/09 14:32:28;;;;;;;30.40;5.07;;;22.60;96.00;;;;;;5051702;28;20385;-64
2023/10/09 14:35:00;;;;;;;25.08;5.50;;;22.70;95.50;;;;;;5067864;28;20925;-65
2023/10/09 14:37:26;;;;;;;30.85;6.00;;;22.90;96.80;;;;;;5071236;28;20117;-64
2023/10/09 14:39:52;;;;;;;40.33;5.88;;;22.80;95.40;;;;;;5069081;28;20465;-64
2023/10/09 14:42:20;;;;;;;27.88;6.00;;;22.60;95.40;;;;;;5065159;28;20044;-64
2023/10/09 14:44:46;;;;;;;32.30;5.72;;;22.50;95.50;;;;;;5050255;28;20161;-64
2023/10/09 14:47:14;;;;;;;37.42;5.15;;;22.40;96.30;;;;;;5051402;28;20554;-64
2023/10/09 14:49:46;;;;;;;38.83;6.32;;;22.40;96.30;;;;;;5050238;28;20028;-65
2023/10/09 14:52:16;;;;;;;29.25;5.28;;;22.30;95.60;;;;;;5051663;28;20075;-64
2023/10/09 14:54:44;;;;;;;29.85;5.30;;;22.20;94.50;;;;;;5050358;28;20029;-65
2023/10/09 14:57:11;;;;;;;22.08;5.78;;;22.20;95.20;;;;;;5050920;28;20025;-65
2023/10/09 14:59:37;;;;;;;32.85;6.43;;;22.20;96.00;;;;;;5050682;28;20036;-65
2023/10/09 15:02:05;;;;;;;25.10;5.93;;;22.20;95.80;;;;;;5050557;28;20024;-65
2023/10/09 15:04:31;;;;;;;38.22;5.75;;;22.30;95.40;;;;;;5068179;28;20035;-65
2023/10/09 15:06:57;;;;;;;24.77;5.60;;;22.20;95.40;;;;;;5070000;28;20694;-65
2023/10/09 15:09:24;;;;;;;26.08;6.15;;;22.10;96.90;;;;;;5070441;28;20100;-65
2023/10/09 15:11:51;;;;;;;28.50;6.88;;;22.10;96.50;;;;;;5069959;28;20032;-65
2023/10/09 15:14:20;;;;;;;30.08;5.18;;;22.00;97.60;;;;;;5052934;28;20111;-64
2023/10/09 15:16:47;;;;;;;28.70;5.22;;;21.90;95.90;;;;;;5055150;28;20105;-64
2023/10/09 15:19:13;;;;;;;47.53;6.30;;;21.90;97.10;;;;;;5070586;28;20074;-64
2023/10/09 15:21:46;;;;;;;27.40;6.03;;;21.70;97.50;;;;;;5070006;28;20522;-65
2023/10/09 15:24:16;;;;;;;40.38;5.32;;;21.60;97.80;;;;;;5055798;28;20374;-64
2023/10/09 15:26:52;;;;;;;27.10;5.50;;;21.50;98.90;;;;;;5037910;28;20106;-65
2023/10/09 15:29:27;;;;;;;22.70;5.78;;;21.30;98.40;;;;;;5040213;28;20029;-64
2023/10/09 15:31:54;;;;;;;23.45;5.38;;;21.30;98.90;;;;;;5049476;28;20033;-64
2023/10/09 15:34:20;;;;;;;39.25;6.03;;;21.10;99.30;;;;;;5035533;28;20022;-64
2023/10/09 15:36:49;;;;;;;25.15;5.25;;;21.00;99.60;;;;;;5036843;28;20035;-64
2023/10/09 15:39:19;;;;;;;23.95;6.00;;;21.00;99.40;;;;;;5070237;28;20028;-65
2023/10/09 15:41:45;;;;;;;40.13;6.17;;;21.00;99.50;;;;;;5069242;28;20060;-65
2023/10/09 15:44:13;;;;;;;30.15;6.07;;;20.90;99.40;;;;;;5069692;28;20443;-65
2023/10/09 15:46:39;;;;;;;29.90;6.18;;;21.00;99.10;;;;;;5052551;28;20128;-66
2023/10/09 15:49:09;;;;;;;29.52;6.00;;;21.00;98.50;;;;;;5069519;28;20028;-65